sensor_id;sensor_type;location;lat;lon;timestamp;temperature;humidity
57636;DHT22;43465;50.728;4.160;2023-03-01T00:01:59;2.80;99.70
57636;DHT22;43465;50.728;4.160;2023-03-01T00:04:24;2.80;99.40
57636;DHT22;43465;50.728;4.160;2023-03-01T00:06:50;2.80;99.60
57636;DHT22;43465;50.728;4.160;2023-03-01T00:09:16;2.80;99.90
57636;DHT22;43465;50.728;4.160;2023-03-01T00:11:42;2.70;99.90
57636;DHT22;43465;50.728;4.160;2023-03-01T00:14:08;2.70;99.90
57636;DHT22;43465;50.728;4.160;2023-03-01T00:16:37;2.80;99.90
57636;DHT22;43465;50.728;4.160;2023-03-01T00:19:07;2.80;99.80
57636;DHT22;43465;50.728;4.160;2023-03-01T00:21:35;2.80;99.40
57636;DHT22;43465;50.728;4.160;2023-03-01T00:24:01;2.50;99.40
57636;DHT22;43465;50.728;4.160;2023-03-01T00:26:27;2.60;99.60
57636;DHT22;43465;50.728;4.160;2023-03-01T00:28:54;2.70;99.40
57636;DHT22;43465;50.728;4.160;2023-03-01T00:31:22;2.60;99.10
57636;DHT22;43465;50.728;4.160;2023-03-01T00:33:51;2.50;99.40
57636;DHT22;43465;50.728;4.160;2023-03-01T00:36:17;2.60;99.40
57636;DHT22;43465;50.728;4.160;2023-03-01T00:38:44;2.60;99.50
57636;DHT22;43465;50.728;4.160;2023-03-01T00:41:14;2.70;99.30
57636;DHT22;43465;50.728;4.160;2023-03-01T00:43:40;2.50;99.20
57636;DHT22;43465;50.728;4.160;2023-03-01T00:46:10;2.40;99.40
57636;DHT22;43465;50.728;4.160;2023-03-01T00:48:36;2.20;99.90
57636;DHT22;43465;50.728;4.160;2023-03-01T00:53:31;2.40;99.90
57636;DHT22;43465;50.728;4.160;2023-03-01T00:55:58;2.40;99.80
57636;DHT22;43465;50.728;4.160;2023-03-01T00:58:23;2.50;99.60
57636;DHT22;43465;50.728;4.160;2023-03-01T01:00:49;2.50;99.40
57636;DHT22;43465;50.728;4.160;2023-03-01T01:03:15;2.40;99.10
57636;DHT22;43465;50.728;4.160;2023-03-01T01:05:41;2.30;99.10
57636;DHT22;43465;50.728;4.160;2023-03-01T01:08:06;2.00;99.90
57636;DHT22;43465;50.728;4.160;2023-03-01T01:10:34;2.00;99.90
57636;DHT22;43465;50.728;4.160;2023-03-01T01:12:59;2.10;99.90
57636;DHT22;43465;50.728;4.160;2023-03-01T01:15:26;2.20;99.90
57636;DHT22;43465;50.728;4.160;2023-03-01T01:17:52;2.20;99.90
57636;DHT22;43465;50.728;4.160;2023-03-01T01:20:18;1.90;99.90
57636;DHT22;43465;50.728;4.160;2023-03-01T01:22:43;1.70;99.90
57636;DHT22;43465;50.728;4.160;2023-03-01T01:25:09;1.60;99.90
57636;DHT22;43465;50.728;4.160;2023-03-01T01:27:36;1.60;99.90
57636;DHT22;43465;50.728;4.160;2023-03-01T01:30:02;1.70;99.90
57636;DHT22;43465;50.728;4.160;2023-03-01T01:32:28;1.70;99.90
57636;DHT22;43465;50.728;4.160;2023-03-01T01:34:54;1.70;99.90
57636;DHT22;43465;50.728;4.160;2023-03-01T01:37:20;1.60;99.90
57636;DHT22;43465;50.728;4.160;2023-03-01T01:39:45;1.50;99.90
57636;DHT22;43465;50.728;4.160;2023-03-01T01:42:16;1.60;99.90
57636;DHT22;43465;50.728;4.160;2023-03-01T01:44:45;1.70;99.90
57636;DHT22;43465;50.728;4.160;2023-03-01T01:47:20;1.70;99.90
57636;DHT22;43465;50.728;4.160;2023-03-01T01:49:51;1.60;99.90
57636;DHT22;43465;50.728;4.160;2023-03-01T01:52:31;1.60;99.90
57636;DHT22;43465;50.728;4.160;2023-03-01T01:55:07;1.70;99.90
57636;DHT22;43465;50.728;4.160;2023-03-01T01:57:39;1.70;99.90
57636;DHT22;43465;50.728;4.160;2023-03-01T02:00:09;1.50;99.90
57636;DHT22;43465;50.728;4.160;2023-03-01T02:02:36;1.50;99.90
57636;DHT22;43465;50.728;4.160;2023-03-01T02:05:51;1.50;99.90
57636;DHT22;43465;50.728;4.160;2023-03-01T02:07:58;1.50;99.90
57636;DHT22;43465;50.728;4.160;2023-03-01T02:10:25;1.50;99.90
57636;DHT22;43465;50.728;4.160;2023-03-01T02:12:52;1.50;99.90
57636;DHT22;43465;50.728;4.160;2023-03-01T02:15:19;1.50;99.90
57636;DHT22;43465;50.728;4.160;2023-03-01T02:17:45;1.40;99.90
57636;DHT22;43465;50.728;4.160;2023-03-01T02:23:06;1.50;99.90
57636;DHT22;43465;50.728;4.160;2023-03-01T02:25:39;1.50;99.90
57636;DHT22;43465;50.728;4.160;2023-03-01T02:30:39;1.20;99.90
57636;DHT22;43465;50.728;4.160;2023-03-01T02:33:26;1.20;99.90
57636;DHT22;43465;50.728;4.160;2023-03-01T02:35:53;1.20;99.90
57636;DHT22;43465;50.728;4.160;2023-03-01T02:38:20;1.30;99.90
57636;DHT22;43465;50.728;4.160;2023-03-01T02:40:46;1.30;99.90
57636;DHT22;43465;50.728;4.160;2023-03-01T02:43:12;1.20;99.90
57636;DHT22;43465;50.728;4.160;2023-03-01T02:45:47;1.20;99.90
57636;DHT22;43465;50.728;4.160;2023-03-01T02:48:13;1.20;99.90
57636;DHT22;43465;50.728;4.160;2023-03-01T02:56:19;1.10;99.90
57636;DHT22;43465;50.728;4.160;2023-03-01T02:58:44;1.00;99.90
57636;DHT22;43465;50.728;4.160;2023-03-01T03:01:13;1.10;99.90
57636;DHT22;43465;50.728;4.160;2023-03-01T03:03:41;1.10;99.90
57636;DHT22;43465;50.728;4.160;2023-03-01T03:06:06;1.20;99.90
57636;DHT22;43465;50.728;4.160;2023-03-01T03:08:32;1.00;99.90
57636;DHT22;43465;50.728;4.160;2023-03-01T03:10:58;1.10;99.90
57636;DHT22;43465;50.728;4.160;2023-03-01T03:13:23;1.00;99.90
57636;DHT22;43465;50.728;4.160;2023-03-01T03:15:54;1.00;99.90
57636;DHT22;43465;50.728;4.160;2023-03-01T03:18:20;0.90;99.90
57636;DHT22;43465;50.728;4.160;2023-03-01T03:20:47;0.90;99.90
57636;DHT22;43465;50.728;4.160;2023-03-01T03:23:13;1.00;99.90
57636;DHT22;43465;50.728;4.160;2023-03-01T03:25:39;0.90;99.90
57636;DHT22;43465;50.728;4.160;2023-03-01T03:28:06;0.90;99.90
57636;DHT22;43465;50.728;4.160;2023-03-01T03:30:36;0.90;99.90
57636;DHT22;43465;50.728;4.160;2023-03-01T03:33:04;0.80;99.90
57636;DHT22;43465;50.728;4.160;2023-03-01T03:35:40;0.70;99.90
57636;DHT22;43465;50.728;4.160;2023-03-01T03:38:08;0.80;99.90
57636;DHT22;43465;50.728;4.160;2023-03-01T03:40:45;0.90;99.90
57636;DHT22;43465;50.728;4.160;2023-03-01T03:43:15;1.00;99.90
57636;DHT22;43465;50.728;4.160;2023-03-01T03:45:44;1.00;99.90
57636;DHT22;43465;50.728;4.160;2023-03-01T03:48:09;0.90;99.90
57636;DHT22;43465;50.728;4.160;2023-03-01T03:50:36;0.80;99.90
57636;DHT22;43465;50.728;4.160;2023-03-01T03:53:04;0.80;99.90
57636;DHT22;43465;50.728;4.160;2023-03-01T03:55:30;0.70;99.90
57636;DHT22;43465;50.728;4.160;2023-03-01T03:58:01;0.70;99.90
57636;DHT22;43465;50.728;4.160;2023-03-01T04:00:33;0.50;99.90
57636;DHT22;43465;50.728;4.160;2023-03-01T04:02:59;0.60;99.90
57636;DHT22;43465;50.728;4.160;2023-03-01T04:05:27;0.70;99.90
57636;DHT22;43465;50.728;4.160;2023-03-01T04:07:53;0.50;99.90
57636;DHT22;43465;50.728;4.160;2023-03-01T04:10:27;0.60;99.90
57636;DHT22;43465;50.728;4.160;2023-03-01T04:12:53;0.60;99.90
57636;DHT22;43465;50.728;4.160;2023-03-01T04:15:22;0.60;99.90
57636;DHT22;43465;50.728;4.160;2023-03-01T04:17:50;0.70;99.90
57636;DHT22;43465;50.728;4.160;2023-03-01T04:20:20;0.70;99.90
57636;DHT22;43465;50.728;4.160;2023-03-01T04:22:58;0.70;99.90
57636;DHT22;43465;50.728;4.160;2023-03-01T04:25:23;0.70;99.90
57636;DHT22;43465;50.728;4.160;2023-03-01T04:27:49;0.70;99.90
57636;DHT22;43465;50.728;4.160;2023-03-01T04:30:15;0.80;99.90
57636;DHT22;43465;50.728;4.160;2023-03-01T04:32:41;0.80;99.90
57636;DHT22;43465;50.728;4.160;2023-03-01T04:35:07;0.90;99.90
57636;DHT22;43465;50.728;4.160;2023-03-01T04:37:33;0.80;99.90
57636;DHT22;43465;50.728;4.160;2023-03-01T04:39:59;0.90;99.90
57636;DHT22;43465;50.728;4.160;2023-03-01T04:42:25;0.80;99.90
57636;DHT22;43465;50.728;4.160;2023-03-01T04:44:50;0.60;99.90
57636;DHT22;43465;50.728;4.160;2023-03-01T04:47:17;0.60;99.90
57636;DHT22;43465;50.728;4.160;2023-03-01T04:49:43;0.60;99.90
57636;DHT22;43465;50.728;4.160;2023-03-01T04:52:09;0.50;99.90
57636;DHT22;43465;50.728;4.160;2023-03-01T04:54:35;0.50;99.90
57636;DHT22;43465;50.728;4.160;2023-03-01T04:57:02;0.50;99.90
57636;DHT22;43465;50.728;4.160;2023-03-01T04:59:28;0.40;99.90
57636;DHT22;43465;50.728;4.160;2023-03-01T05:01:55;0.50;99.90
57636;DHT22;43465;50.728;4.160;2023-03-01T05:04:24;0.40;99.90
57636;DHT22;43465;50.728;4.160;2023-03-01T05:06:50;0.40;99.90
57636;DHT22;43465;50.728;4.160;2023-03-01T05:09:16;0.40;99.90
57636;DHT22;43465;50.728;4.160;2023-03-01T05:11:42;0.30;99.90
57636;DHT22;43465;50.728;4.160;2023-03-01T05:14:08;0.40;99.90
57636;DHT22;43465;50.728;4.160;2023-03-01T05:16:35;0.30;99.90
57636;DHT22;43465;50.728;4.160;2023-03-01T05:19:02;0.30;99.90
57636;DHT22;43465;50.728;4.160;2023-03-01T05:21:37;0.30;99.90
57636;DHT22;43465;50.728;4.160;2023-03-01T05:24:23;0.30;99.90
57636;DHT22;43465;50.728;4.160;2023-03-01T05:26:49;0.30;99.90
57636;DHT22;43465;50.728;4.160;2023-03-01T05:29:18;0.30;99.90
57636;DHT22;43465;50.728;4.160;2023-03-01T05:31:43;0.10;99.90
57636;DHT22;43465;50.728;4.160;2023-03-01T05:34:09;0.20;99.90
57636;DHT22;43465;50.728;4.160;2023-03-01T05:36:36;0.20;99.90
57636;DHT22;43465;50.728;4.160;2023-03-01T05:39:03;0.10;99.90
57636;DHT22;43465;50.728;4.160;2023-03-01T05:41:29;0.20;99.90
57636;DHT22;43465;50.728;4.160;2023-03-01T05:43:54;0.30;99.90
57636;DHT22;43465;50.728;4.160;2023-03-01T05:46:20;0.40;99.90
57636;DHT22;43465;50.728;4.160;2023-03-01T05:48:46;0.30;99.90
57636;DHT22;43465;50.728;4.160;2023-03-01T05:51:13;0.20;99.90
57636;DHT22;43465;50.728;4.160;2023-03-01T05:53:39;0.20;99.90
57636;DHT22;43465;50.728;4.160;2023-03-01T05:56:05;0.10;99.90
57636;DHT22;43465;50.728;4.160;2023-03-01T05:58:31;0.10;99.90
57636;DHT22;43465;50.728;4.160;2023-03-01T06:00:57;0.10;99.90
57636;DHT22;43465;50.728;4.160;2023-03-01T06:03:23;0.20;99.90
57636;DHT22;43465;50.728;4.160;2023-03-01T06:05:48;0.20;99.90
57636;DHT22;43465;50.728;4.160;2023-03-01T06:08:14;0.20;99.90
57636;DHT22;43465;50.728;4.160;2023-03-01T06:10:40;0.10;99.90
57636;DHT22;43465;50.728;4.160;2023-03-01T06:13:06;0.10;99.90
57636;DHT22;43465;50.728;4.160;2023-03-01T06:15:31;0.20;99.90
57636;DHT22;43465;50.728;4.160;2023-03-01T06:17:57;0.30;99.90
57636;DHT22;43465;50.728;4.160;2023-03-01T06:20:24;0.30;99.90
57636;DHT22;43465;50.728;4.160;2023-03-01T06:22:51;0.30;99.90
57636;DHT22;43465;50.728;4.160;2023-03-01T06:25:23;0.00;99.90
57636;DHT22;43465;50.728;4.160;2023-03-01T06:27:49;0.00;99.90
57636;DHT22;43465;50.728;4.160;2023-03-01T06:30:17;0.00;99.90
57636;DHT22;43465;50.728;4.160;2023-03-01T06:32:43;0.00;99.90
57636;DHT22;43465;50.728;4.160;2023-03-01T06:35:14;0.20;99.90
57636;DHT22;43465;50.728;4.160;2023-03-01T06:37:43;0.20;99.90
57636;DHT22;43465;50.728;4.160;2023-03-01T06:40:10;0.10;99.90
57636;DHT22;43465;50.728;4.160;2023-03-01T06:42:38;0.10;99.90
57636;DHT22;43465;50.728;4.160;2023-03-01T06:45:06;0.10;99.90
57636;DHT22;43465;50.728;4.160;2023-03-01T06:47:33;0.10;99.90
57636;DHT22;43465;50.728;4.160;2023-03-01T06:49:59;0.00;99.90
57636;DHT22;43465;50.728;4.160;2023-03-01T06:52:25;0.00;99.90
57636;DHT22;43465;50.728;4.160;2023-03-01T06:54:50;0.10;99.90
57636;DHT22;43465;50.728;4.160;2023-03-01T06:57:16;0.10;99.90
57636;DHT22;43465;50.728;4.160;2023-03-01T06:59:42;0.10;99.90
57636;DHT22;43465;50.728;4.160;2023-03-01T07:02:12;0.20;99.90
57636;DHT22;43465;50.728;4.160;2023-03-01T07:04:38;0.20;99.90
57636;DHT22;43465;50.728;4.160;2023-03-01T07:07:04;0.20;99.90
57636;DHT22;43465;50.728;4.160;2023-03-01T07:09:29;0.20;99.90
57636;DHT22;43465;50.728;4.160;2023-03-01T07:11:56;0.20;99.90
57636;DHT22;43465;50.728;4.160;2023-03-01T07:14:22;0.20;99.90
57636;DHT22;43465;50.728;4.160;2023-03-01T07:16:50;0.20;99.90
57636;DHT22;43465;50.728;4.160;2023-03-01T07:19:15;0.10;99.90
57636;DHT22;43465;50.728;4.160;2023-03-01T07:21:41;-0.10;99.90
57636;DHT22;43465;50.728;4.160;2023-03-01T07:24:09;-0.10;99.90
57636;DHT22;43465;50.728;4.160;2023-03-01T07:26:34;0.00;99.90
57636;DHT22;43465;50.728;4.160;2023-03-01T07:29:02;0.00;99.90
57636;DHT22;43465;50.728;4.160;2023-03-01T07:31:28;0.10;99.90
57636;DHT22;43465;50.728;4.160;2023-03-01T07:33:57;0.00;99.90
57636;DHT22;43465;50.728;4.160;2023-03-01T07:36:24;0.10;99.90
57636;DHT22;43465;50.728;4.160;2023-03-01T07:38:50;0.30;99.90
57636;DHT22;43465;50.728;4.160;2023-03-01T07:41:15;0.30;99.90
57636;DHT22;43465;50.728;4.160;2023-03-01T07:43:41;0.50;99.90
57636;DHT22;43465;50.728;4.160;2023-03-01T07:46:07;0.70;99.90
57636;DHT22;43465;50.728;4.160;2023-03-01T07:48:33;0.80;99.90
57636;DHT22;43465;50.728;4.160;2023-03-01T07:51:00;0.70;99.90
57636;DHT22;43465;50.728;4.160;2023-03-01T07:53:26;0.80;99.90
57636;DHT22;43465;50.728;4.160;2023-03-01T07:56:08;0.90;99.90
57636;DHT22;43465;50.728;4.160;2023-03-01T07:58:35;1.00;99.90
57636;DHT22;43465;50.728;4.160;2023-03-01T08:01:05;1.10;99.90
57636;DHT22;43465;50.728;4.160;2023-03-01T08:03:31;1.20;99.90
57636;DHT22;43465;50.728;4.160;2023-03-01T08:06:00;1.30;99.90
57636;DHT22;43465;50.728;4.160;2023-03-01T08:08:26;1.50;99.90
57636;DHT22;43465;50.728;4.160;2023-03-01T08:10:52;1.70;99.90
57636;DHT22;43465;50.728;4.160;2023-03-01T08:13:17;1.70;99.90
57636;DHT22;43465;50.728;4.160;2023-03-01T08:15:51;1.60;99.90
57636;DHT22;43465;50.728;4.160;2023-03-01T08:18:17;1.50;99.90
57636;DHT22;43465;50.728;4.160;2023-03-01T08:20:43;1.60;99.90
57636;DHT22;43465;50.728;4.160;2023-03-01T08:23:09;1.90;99.90
57636;DHT22;43465;50.728;4.160;2023-03-01T08:25:35;2.20;99.90
57636;DHT22;43465;50.728;4.160;2023-03-01T08:28:01;2.20;99.90
57636;DHT22;43465;50.728;4.160;2023-03-01T08:30:26;2.30;99.90
57636;DHT22;43465;50.728;4.160;2023-03-01T08:32:52;2.50;99.90
57636;DHT22;43465;50.728;4.160;2023-03-01T08:35:19;2.70;99.90
57636;DHT22;43465;50.728;4.160;2023-03-01T08:37:45;2.90;99.90
57636;DHT22;43465;50.728;4.160;2023-03-01T08:40:11;2.90;99.90
57636;DHT22;43465;50.728;4.160;2023-03-01T08:42:42;2.80;99.90
57636;DHT22;43465;50.728;4.160;2023-03-01T08:45:11;2.90;99.90
57636;DHT22;43465;50.728;4.160;2023-03-01T08:47:37;3.00;99.90
57636;DHT22;43465;50.728;4.160;2023-03-01T08:50:04;3.00;99.90
57636;DHT22;43465;50.728;4.160;2023-03-01T08:52:32;3.00;99.90
57636;DHT22;43465;50.728;4.160;2023-03-01T08:54:58;3.00;99.90
57636;DHT22;43465;50.728;4.160;2023-03-01T08:57:23;3.20;99.90
57636;DHT22;43465;50.728;4.160;2023-03-01T08:59:49;3.20;99.90
57636;DHT22;43465;50.728;4.160;2023-03-01T09:02:17;3.30;99.90
57636;DHT22;43465;50.728;4.160;2023-03-01T09:04:43;3.40;99.90
57636;DHT22;43465;50.728;4.160;2023-03-01T09:07:10;3.50;99.90
57636;DHT22;43465;50.728;4.160;2023-03-01T09:09:36;3.50;99.90
57636;DHT22;43465;50.728;4.160;2023-03-01T09:12:02;3.60;99.90
57636;DHT22;43465;50.728;4.160;2023-03-01T09:14:28;3.70;99.90
57636;DHT22;43465;50.728;4.160;2023-03-01T09:16:54;3.80;99.90
57636;DHT22;43465;50.728;4.160;2023-03-01T09:19:30;3.80;99.90
57636;DHT22;43465;50.728;4.160;2023-03-01T09:21:56;3.90;99.90
57636;DHT22;43465;50.728;4.160;2023-03-01T09:24:24;4.00;99.90
57636;DHT22;43465;50.728;4.160;2023-03-01T09:26:54;4.00;99.90
57636;DHT22;43465;50.728;4.160;2023-03-01T09:29:20;4.10;99.90
57636;DHT22;43465;50.728;4.160;2023-03-01T09:31:46;4.00;99.90
57636;DHT22;43465;50.728;4.160;2023-03-01T09:34:11;4.20;99.90
57636;DHT22;43465;50.728;4.160;2023-03-01T09:36:40;4.30;99.90
57636;DHT22;43465;50.728;4.160;2023-03-01T09:39:06;4.40;99.90
57636;DHT22;43465;50.728;4.160;2023-03-01T09:46:43;4.60;99.90
57636;DHT22;43465;50.728;4.160;2023-03-01T09:49:18;4.60;99.90
57636;DHT22;43465;50.728;4.160;2023-03-01T09:54:45;4.60;99.90
57636;DHT22;43465;50.728;4.160;2023-03-01T09:57:19;4.70;99.90
57636;DHT22;43465;50.728;4.160;2023-03-01T10:02:45;4.80;99.90
57636;DHT22;43465;50.728;4.160;2023-03-01T10:05:21;4.80;99.90
57636;DHT22;43465;50.728;4.160;2023-03-01T10:08:33;4.90;99.90
57636;DHT22;43465;50.728;4.160;2023-03-01T10:11:02;4.90;99.90
57636;DHT22;43465;50.728;4.160;2023-03-01T10:13:47;5.00;99.90
57636;DHT22;43465;50.728;4.160;2023-03-01T10:16:36;5.10;99.90
57636;DHT22;43465;50.728;4.160;2023-03-01T10:19:04;5.10;99.90
57636;DHT22;43465;50.728;4.160;2023-03-01T10:21:39;5.20;99.90
57636;DHT22;43465;50.728;4.160;2023-03-01T10:24:14;5.30;99.90
57636;DHT22;43465;50.728;4.160;2023-03-01T10:26:57;5.30;99.80
57636;DHT22;43465;50.728;4.160;2023-03-01T10:29:37;5.30;99.90
57636;DHT22;43465;50.728;4.160;2023-03-01T10:32:03;5.20;99.90
57636;DHT22;43465;50.728;4.160;2023-03-01T10:34:34;5.20;99.40
57636;DHT22;43465;50.728;4.160;2023-03-01T10:37:20;5.20;99.90
57636;DHT22;43465;50.728;4.160;2023-03-01T10:40:06;5.50;99.20
57636;DHT22;43465;50.728;4.160;2023-03-01T10:42:45;5.50;99.50
57636;DHT22;43465;50.728;4.160;2023-03-01T10:47:40;5.70;98.20
57636;DHT22;43465;50.728;4.160;2023-03-01T10:50:21;5.70;98.40
57636;DHT22;43465;50.728;4.160;2023-03-01T10:52:59;5.80;98.10
57636;DHT22;43465;50.728;4.160;2023-03-01T10:55:37;5.90;97.40
57636;DHT22;43465;50.728;4.160;2023-03-01T10:58:17;5.90;97.10
57636;DHT22;43465;50.728;4.160;2023-03-01T11:00:54;6.00;97.40
57636;DHT22;43465;50.728;4.160;2023-03-01T11:06:19;6.10;96.90
57636;DHT22;43465;50.728;4.160;2023-03-01T11:08:48;6.10;97.10
57636;DHT22;43465;50.728;4.160;2023-03-01T11:11:30;6.20;97.20
57636;DHT22;43465;50.728;4.160;2023-03-01T11:13:59;6.30;96.70
57636;DHT22;43465;50.728;4.160;2023-03-01T11:16:31;6.40;95.00
57636;DHT22;43465;50.728;4.160;2023-03-01T11:19:13;6.40;96.60
57636;DHT22;43465;50.728;4.160;2023-03-01T11:21:47;6.40;97.00
57636;DHT22;43465;50.728;4.160;2023-03-01T11:24:16;6.40;95.60
57636;DHT22;43465;50.728;4.160;2023-03-01T11:26:45;6.40;96.00
57636;DHT22;43465;50.728;4.160;2023-03-01T11:29:39;6.50;95.30
57636;DHT22;43465;50.728;4.160;2023-03-01T11:32:09;6.60;95.00
57636;DHT22;43465;50.728;4.160;2023-03-01T11:37:11;6.50;94.60
57636;DHT22;43465;50.728;4.160;2023-03-01T11:39:46;6.60;94.50
57636;DHT22;43465;50.728;4.160;2023-03-01T11:42:18;6.70;94.60
57636;DHT22;43465;50.728;4.160;2023-03-01T11:44:49;6.80;93.80
57636;DHT22;43465;50.728;4.160;2023-03-01T11:50:07;7.10;93.10
57636;DHT22;43465;50.728;4.160;2023-03-01T11:55:48;7.30;92.80
57636;DHT22;43465;50.728;4.160;2023-03-01T11:58:41;7.30;91.60
57636;DHT22;43465;50.728;4.160;2023-03-01T12:01:18;7.40;92.00
57636;DHT22;43465;50.728;4.160;2023-03-01T12:07:01;7.20;91.40
57636;DHT22;43465;50.728;4.160;2023-03-01T12:09:59;7.10;91.80
57636;DHT22;43465;50.728;4.160;2023-03-01T12:20:53;7.50;91.00
57636;DHT22;43465;50.728;4.160;2023-03-01T12:23:48;7.60;90.80
57636;DHT22;43465;50.728;4.160;2023-03-01T12:26:35;7.60;89.60
57636;DHT22;43465;50.728;4.160;2023-03-01T12:31:51;7.80;88.10
57636;DHT22;43465;50.728;4.160;2023-03-01T12:48:36;8.30;84.90
57636;DHT22;43465;50.728;4.160;2023-03-01T12:51:15;8.20;83.60
57636;DHT22;43465;50.728;4.160;2023-03-01T12:53:48;8.20;84.70
57636;DHT22;43465;50.728;4.160;2023-03-01T12:56:18;8.20;83.40
57636;DHT22;43465;50.728;4.160;2023-03-01T13:02:01;8.00;82.50
57636;DHT22;43465;50.728;4.160;2023-03-01T13:10:26;7.70;80.00
57636;DHT22;43465;50.728;4.160;2023-03-01T13:17:57;8.30;82.90
57636;DHT22;43465;50.728;4.160;2023-03-01T13:20:31;8.30;80.20
57636;DHT22;43465;50.728;4.160;2023-03-01T13:28:36;8.30;81.00
57636;DHT22;43465;50.728;4.160;2023-03-01T13:31:07;8.30;81.40
57636;DHT22;43465;50.728;4.160;2023-03-01T13:36:09;8.30;81.10
57636;DHT22;43465;50.728;4.160;2023-03-01T13:46:51;8.70;80.40
57636;DHT22;43465;50.728;4.160;2023-03-01T13:49:23;8.80;80.80
57636;DHT22;43465;50.728;4.160;2023-03-01T13:51:51;8.80;81.80
57636;DHT22;43465;50.728;4.160;2023-03-01T13:54:26;8.80;78.90
57636;DHT22;43465;50.728;4.160;2023-03-01T13:56:54;8.80;78.80
57636;DHT22;43465;50.728;4.160;2023-03-01T13:59:23;9.00;77.50
57636;DHT22;43465;50.728;4.160;2023-03-01T14:01:57;9.30;76.10
57636;DHT22;43465;50.728;4.160;2023-03-01T14:06:48;10.00;72.80
57636;DHT22;43465;50.728;4.160;2023-03-01T14:09:25;10.30;70.40
57636;DHT22;43465;50.728;4.160;2023-03-01T14:14:38;10.80;70.30
57636;DHT22;43465;50.728;4.160;2023-03-01T14:19:33;11.50;72.30
57636;DHT22;43465;50.728;4.160;2023-03-01T14:24:34;11.90;66.20
57636;DHT22;43465;50.728;4.160;2023-03-01T14:27:02;11.50;64.60
57636;DHT22;43465;50.728;4.160;2023-03-01T14:29:36;11.20;66.10
57636;DHT22;43465;50.728;4.160;2023-03-01T14:32:18;11.00;66.10
57636;DHT22;43465;50.728;4.160;2023-03-01T14:34:47;10.90;68.10
57636;DHT22;43465;50.728;4.160;2023-03-01T14:39:50;11.20;65.10
57636;DHT22;43465;50.728;4.160;2023-03-01T14:42:18;11.40;64.20
57636;DHT22;43465;50.728;4.160;2023-03-01T14:44:47;11.50;64.50
57636;DHT22;43465;50.728;4.160;2023-03-01T14:49:59;11.90;64.20
57636;DHT22;43465;50.728;4.160;2023-03-01T14:52:40;11.90;63.00
57636;DHT22;43465;50.728;4.160;2023-03-01T14:55:16;11.70;64.70
57636;DHT22;43465;50.728;4.160;2023-03-01T14:57:45;11.70;65.20
57636;DHT22;43465;50.728;4.160;2023-03-01T15:00:26;11.70;64.80
57636;DHT22;43465;50.728;4.160;2023-03-01T15:02:54;11.50;62.00
57636;DHT22;43465;50.728;4.160;2023-03-01T15:05:29;11.40;65.50
57636;DHT22;43465;50.728;4.160;2023-03-01T15:07:56;11.20;64.60
57636;DHT22;43465;50.728;4.160;2023-03-01T15:10:26;11.10;66.10
57636;DHT22;43465;50.728;4.160;2023-03-01T15:12:53;11.00;66.60
57636;DHT22;43465;50.728;4.160;2023-03-01T15:15:42;11.10;67.30
57636;DHT22;43465;50.728;4.160;2023-03-01T15:20:44;11.10;65.60
57636;DHT22;43465;50.728;4.160;2023-03-01T15:23:24;11.10;63.50
57636;DHT22;43465;50.728;4.160;2023-03-01T15:25:52;10.60;65.70
57636;DHT22;43465;50.728;4.160;2023-03-01T15:28:27;10.60;68.10
57636;DHT22;43465;50.728;4.160;2023-03-01T15:31:20;10.80;67.10
57636;DHT22;43465;50.728;4.160;2023-03-01T15:33:46;11.00;65.20
57636;DHT22;43465;50.728;4.160;2023-03-01T15:36:38;11.10;64.50
57636;DHT22;43465;50.728;4.160;2023-03-01T15:39:05;11.20;64.70
57636;DHT22;43465;50.728;4.160;2023-03-01T15:41:49;10.90;65.70
57636;DHT22;43465;50.728;4.160;2023-03-01T15:44:26;10.70;65.90
57636;DHT22;43465;50.728;4.160;2023-03-01T15:46:52;10.60;66.80
57636;DHT22;43465;50.728;4.160;2023-03-01T15:49:39;10.80;66.70
57636;DHT22;43465;50.728;4.160;2023-03-01T15:52:22;11.00;66.50
57636;DHT22;43465;50.728;4.160;2023-03-01T15:54:55;11.40;67.30
57636;DHT22;43465;50.728;4.160;2023-03-01T15:57:21;11.80;65.70
57636;DHT22;43465;50.728;4.160;2023-03-01T15:59:47;11.90;62.10
57636;DHT22;43465;50.728;4.160;2023-03-01T16:02:12;11.70;63.00
57636;DHT22;43465;50.728;4.160;2023-03-01T16:04:39;11.40;63.90
57636;DHT22;43465;50.728;4.160;2023-03-01T16:07:05;11.20;64.40
57636;DHT22;43465;50.728;4.160;2023-03-01T16:09:31;11.00;66.40
57636;DHT22;43465;50.728;4.160;2023-03-01T16:11:57;11.10;64.40
57636;DHT22;43465;50.728;4.160;2023-03-01T16:14:23;11.10;65.20
57636;DHT22;43465;50.728;4.160;2023-03-01T16:16:49;11.30;64.30
57636;DHT22;43465;50.728;4.160;2023-03-01T16:19:15;11.60;63.90
57636;DHT22;43465;50.728;4.160;2023-03-01T16:21:41;11.70;63.30
57636;DHT22;43465;50.728;4.160;2023-03-01T16:24:08;11.90;63.40
57636;DHT22;43465;50.728;4.160;2023-03-01T16:26:34;12.00;62.30
57636;DHT22;43465;50.728;4.160;2023-03-01T16:29:00;12.30;63.00
57636;DHT22;43465;50.728;4.160;2023-03-01T16:31:26;12.50;63.40
57636;DHT22;43465;50.728;4.160;2023-03-01T16:33:56;12.50;63.80
57636;DHT22;43465;50.728;4.160;2023-03-01T16:36:24;12.30;64.10
57636;DHT22;43465;50.728;4.160;2023-03-01T16:38:51;12.20;64.80
57636;DHT22;43465;50.728;4.160;2023-03-01T16:41:19;11.90;64.30
57636;DHT22;43465;50.728;4.160;2023-03-01T16:43:45;11.60;64.80
57636;DHT22;43465;50.728;4.160;2023-03-01T16:46:17;11.30;63.70
57636;DHT22;43465;50.728;4.160;2023-03-01T16:48:44;11.00;65.00
57636;DHT22;43465;50.728;4.160;2023-03-01T16:51:11;10.80;66.40
57636;DHT22;43465;50.728;4.160;2023-03-01T16:53:37;10.60;66.50
57636;DHT22;43465;50.728;4.160;2023-03-01T16:56:05;10.70;66.50
57636;DHT22;43465;50.728;4.160;2023-03-01T16:58:32;10.80;66.50
57636;DHT22;43465;50.728;4.160;2023-03-01T17:01:13;10.70;66.60
57636;DHT22;43465;50.728;4.160;2023-03-01T17:03:39;10.70;66.40
57636;DHT22;43465;50.728;4.160;2023-03-01T17:06:08;10.80;66.70
57636;DHT22;43465;50.728;4.160;2023-03-01T17:08:35;10.70;66.70
57636;DHT22;43465;50.728;4.160;2023-03-01T17:11:22;10.60;67.20
57636;DHT22;43465;50.728;4.160;2023-03-01T17:13:48;10.40;68.10
57636;DHT22;43465;50.728;4.160;2023-03-01T17:16:16;10.30;67.80
57636;DHT22;43465;50.728;4.160;2023-03-01T17:18:42;10.10;68.50
57636;DHT22;43465;50.728;4.160;2023-03-01T17:21:08;9.90;68.50
57636;DHT22;43465;50.728;4.160;2023-03-01T17:23:36;9.50;69.30
57636;DHT22;43465;50.728;4.160;2023-03-01T17:26:04;9.10;70.70
57636;DHT22;43465;50.728;4.160;2023-03-01T17:28:31;8.80;72.10
57636;DHT22;43465;50.728;4.160;2023-03-01T17:30:59;8.60;72.90
57636;DHT22;43465;50.728;4.160;2023-03-01T17:33:25;8.50;73.70
57636;DHT22;43465;50.728;4.160;2023-03-01T17:35:51;8.40;74.40
57636;DHT22;43465;50.728;4.160;2023-03-01T17:38:17;8.30;75.10
57636;DHT22;43465;50.728;4.160;2023-03-01T17:40:44;8.00;75.40
57636;DHT22;43465;50.728;4.160;2023-03-01T17:43:14;7.80;76.20
57636;DHT22;43465;50.728;4.160;2023-03-01T17:45:40;7.70;77.10
57636;DHT22;43465;50.728;4.160;2023-03-01T17:48:08;7.70;77.70
57636;DHT22;43465;50.728;4.160;2023-03-01T17:50:37;7.60;78.80
57636;DHT22;43465;50.728;4.160;2023-03-01T17:53:05;7.60;78.50